Taycheedah, Wisconsin
Current Conditions -  °F | °C
As of 1:53 PM on Thursday 27 Nov 2014 (Local Time) from KFLD Reporting Station
Clear Clear  
Wind Chill:   Ceiling: Unl
Heat Index: 17°   Visibility: 10mi
Dew Point:   Wind: 9mph
Humidity: 65%   Direction: 330°NNW
Pressure: 30.35"   Gusts: NA
Location:  43.7436°N, 88.3886°W
Report Text: KFLD 271953Z AUTO 33008KT 10SM CLR M08/M14 A3035 RMK AO2 SLP291 T10831139
Loading
Personal Weather Stations






























Interactive Weather Map New forecast layout! Learn more

10-Day Weather Forecast

Advertisements
Track Severe Weather on mobile